sensor_id;sensor_type;location;lat;lon;timestamp;P1;durP1;ratioP1;P2;durP2;ratioP2
12218;SDS011;6172;42.646;23.344;2022-12-10T00:00:20;19.10;;;8.63;;
12218;SDS011;6172;42.646;23.344;2022-12-10T00:02:50;16.80;;;7.97;;
12218;SDS011;6172;42.646;23.344;2022-12-10T00:05:22;16.20;;;7.67;;
12218;SDS011;6172;42.646;23.344;2022-12-10T00:07:49;14.20;;;7.10;;
12218;SDS011;6172;42.646;23.344;2022-12-10T00:10:18;14.70;;;7.07;;
12218;SDS011;6172;42.646;23.344;2022-12-10T00:12:44;23.50;;;7.40;;
12218;SDS011;6172;42.646;23.344;2022-12-10T00:15:11;18.03;;;7.77;;
12218;SDS011;6172;42.646;23.344;2022-12-10T00:17:38;11.13;;;7.23;;
12218;SDS011;6172;42.646;23.344;2022-12-10T00:20:10;21.87;;;7.83;;
12218;SDS011;6172;42.646;23.344;2022-12-10T00:22:37;14.67;;;8.23;;
12218;SDS011;6172;42.646;23.344;2022-12-10T00:25:04;19.47;;;6.87;;
12218;SDS011;6172;42.646;23.344;2022-12-10T00:27:32;15.57;;;7.63;;
12218;SDS011;6172;42.646;23.344;2022-12-10T00:29:59;18.03;;;8.60;;
12218;SDS011;6172;42.646;23.344;2022-12-10T00:32:26;19.57;;;9.47;;
12218;SDS011;6172;42.646;23.344;2022-12-10T00:34:53;19.97;;;8.97;;
12218;SDS011;6172;42.646;23.344;2022-12-10T00:37:20;14.40;;;8.03;;
12218;SDS011;6172;42.646;23.344;2022-12-10T00:39:47;17.80;;;9.17;;
12218;SDS011;6172;42.646;23.344;2022-12-10T00:42:14;16.30;;;7.70;;
12218;SDS011;6172;42.646;23.344;2022-12-10T00:44:42;13.27;;;7.53;;
12218;SDS011;6172;42.646;23.344;2022-12-10T00:47:10;16.67;;;8.00;;
12218;SDS011;6172;42.646;23.344;2022-12-10T00:49:37;21.03;;;7.67;;
12218;SDS011;6172;42.646;23.344;2022-12-10T00:52:04;19.20;;;7.53;;
12218;SDS011;6172;42.646;23.344;2022-12-10T00:54:34;17.40;;;7.97;;
12218;SDS011;6172;42.646;23.344;2022-12-10T00:57:00;18.17;;;7.27;;
12218;SDS011;6172;42.646;23.344;2022-12-10T00:59:28;20.53;;;8.33;;
12218;SDS011;6172;42.646;23.344;2022-12-10T01:01:56;17.73;;;8.07;;
12218;SDS011;6172;42.646;23.344;2022-12-10T01:04:28;20.30;;;7.67;;
12218;SDS011;6172;42.646;23.344;2022-12-10T01:06:55;19.50;;;7.40;;
12218;SDS011;6172;42.646;23.344;2022-12-10T01:09:25;21.37;;;8.50;;
12218;SDS011;6172;42.646;23.344;2022-12-10T01:11:55;18.30;;;7.80;;
12218;SDS011;6172;42.646;23.344;2022-12-10T01:14:27;16.03;;;7.77;;
12218;SDS011;6172;42.646;23.344;2022-12-10T01:16:59;17.57;;;8.00;;
12218;SDS011;6172;42.646;23.344;2022-12-10T01:19:28;15.60;;;7.60;;
12218;SDS011;6172;42.646;23.344;2022-12-10T01:21:55;12.87;;;7.07;;
12218;SDS011;6172;42.646;23.344;2022-12-10T01:24:24;19.87;;;7.60;;
12218;SDS011;6172;42.646;23.344;2022-12-10T01:26:52;20.70;;;7.93;;
12218;SDS011;6172;42.646;23.344;2022-12-10T01:29:21;14.13;;;7.57;;
12218;SDS011;6172;42.646;23.344;2022-12-10T01:31:50;15.47;;;7.70;;
12218;SDS011;6172;42.646;23.344;2022-12-10T01:34:27;15.77;;;7.37;;
12218;SDS011;6172;42.646;23.344;2022-12-10T01:36:54;16.63;;;7.10;;
12218;SDS011;6172;42.646;23.344;2022-12-10T01:39:21;15.77;;;7.87;;
12218;SDS011;6172;42.646;23.344;2022-12-10T01:41:49;15.17;;;7.53;;
12218;SDS011;6172;42.646;23.344;2022-12-10T01:47:22;18.73;;;8.07;;
12218;SDS011;6172;42.646;23.344;2022-12-10T01:49:51;17.33;;;7.60;;
12218;SDS011;6172;42.646;23.344;2022-12-10T01:52:18;15.10;;;7.43;;
12218;SDS011;6172;42.646;23.344;2022-12-10T01:54:46;17.93;;;7.67;;
12218;SDS011;6172;42.646;23.344;2022-12-10T01:57:13;14.97;;;7.40;;
12218;SDS011;6172;42.646;23.344;2022-12-10T01:59:46;12.63;;;7.20;;
12218;SDS011;6172;42.646;23.344;2022-12-10T02:02:17;19.80;;;7.83;;
12218;SDS011;6172;42.646;23.344;2022-12-10T02:04:56;14.40;;;7.90;;
12218;SDS011;6172;42.646;23.344;2022-12-10T02:07:33;14.47;;;7.27;;
12218;SDS011;6172;42.646;23.344;2022-12-10T02:10:08;18.97;;;7.27;;
12218;SDS011;6172;42.646;23.344;2022-12-10T02:12:46;13.87;;;7.33;;
12218;SDS011;6172;42.646;23.344;2022-12-10T02:15:18;14.87;;;7.17;;
12218;SDS011;6172;42.646;23.344;2022-12-10T02:17:50;14.80;;;6.53;;
12218;SDS011;6172;42.646;23.344;2022-12-10T02:20:22;15.83;;;7.43;;
12218;SDS011;6172;42.646;23.344;2022-12-10T02:22:53;14.00;;;7.07;;
12218;SDS011;6172;42.646;23.344;2022-12-10T02:25:24;15.47;;;6.70;;
12218;SDS011;6172;42.646;23.344;2022-12-10T02:27:59;14.90;;;6.20;;
12218;SDS011;6172;42.646;23.344;2022-12-10T02:30:37;16.70;;;7.00;;
12218;SDS011;6172;42.646;23.344;2022-12-10T02:33:07;12.93;;;6.80;;
12218;SDS011;6172;42.646;23.344;2022-12-10T02:35:35;17.60;;;6.77;;
12218;SDS011;6172;42.646;23.344;2022-12-10T02:38:07;10.63;;;6.00;;
12218;SDS011;6172;42.646;23.344;2022-12-10T02:40:39;10.13;;;5.97;;
12218;SDS011;6172;42.646;23.344;2022-12-10T02:43:12;12.57;;;6.60;;
12218;SDS011;6172;42.646;23.344;2022-12-10T02:45:42;16.73;;;7.07;;
12218;SDS011;6172;42.646;23.344;2022-12-10T02:48:10;13.60;;;6.87;;
12218;SDS011;6172;42.646;23.344;2022-12-10T02:50:39;13.93;;;7.20;;
12218;SDS011;6172;42.646;23.344;2022-12-10T02:53:06;15.97;;;7.17;;
12218;SDS011;6172;42.646;23.344;2022-12-10T02:55:37;15.17;;;6.80;;
12218;SDS011;6172;42.646;23.344;2022-12-10T02:58:25;15.67;;;7.27;;
12218;SDS011;6172;42.646;23.344;2022-12-10T03:01:05;11.00;;;6.30;;
12218;SDS011;6172;42.646;23.344;2022-12-10T03:03:38;15.63;;;6.60;;
12218;SDS011;6172;42.646;23.344;2022-12-10T03:06:12;11.33;;;5.93;;
12218;SDS011;6172;42.646;23.344;2022-12-10T03:08:47;11.87;;;6.03;;
12218;SDS011;6172;42.646;23.344;2022-12-10T03:11:17;9.33;;;5.37;;
12218;SDS011;6172;42.646;23.344;2022-12-10T03:13:48;9.67;;;5.47;;
12218;SDS011;6172;42.646;23.344;2022-12-10T03:16:23;13.17;;;5.47;;
12218;SDS011;6172;42.646;23.344;2022-12-10T03:18:52;10.20;;;4.80;;
12218;SDS011;6172;42.646;23.344;2022-12-10T03:21:22;10.97;;;4.93;;
12218;SDS011;6172;42.646;23.344;2022-12-10T03:23:52;14.13;;;5.13;;
12218;SDS011;6172;42.646;23.344;2022-12-10T03:26:19;9.77;;;5.07;;
12218;SDS011;6172;42.646;23.344;2022-12-10T03:28:49;11.27;;;5.27;;
12218;SDS011;6172;42.646;23.344;2022-12-10T03:31:18;10.60;;;4.73;;
12218;SDS011;6172;42.646;23.344;2022-12-10T03:33:47;13.07;;;5.13;;
12218;SDS011;6172;42.646;23.344;2022-12-10T03:36:15;8.27;;;5.20;;
12218;SDS011;6172;42.646;23.344;2022-12-10T03:38:44;7.57;;;4.50;;
12218;SDS011;6172;42.646;23.344;2022-12-10T03:41:11;9.93;;;5.03;;
12218;SDS011;6172;42.646;23.344;2022-12-10T03:43:49;9.47;;;5.13;;
12218;SDS011;6172;42.646;23.344;2022-12-10T03:46:17;12.40;;;4.63;;
12218;SDS011;6172;42.646;23.344;2022-12-10T03:48:44;7.73;;;4.53;;
12218;SDS011;6172;42.646;23.344;2022-12-10T03:51:12;7.90;;;5.17;;
12218;SDS011;6172;42.646;23.344;2022-12-10T03:53:40;9.37;;;4.70;;
12218;SDS011;6172;42.646;23.344;2022-12-10T03:56:07;12.03;;;4.17;;
12218;SDS011;6172;42.646;23.344;2022-12-10T03:58:34;8.07;;;4.20;;
12218;SDS011;6172;42.646;23.344;2022-12-10T04:01:02;9.93;;;4.10;;
12218;SDS011;6172;42.646;23.344;2022-12-10T04:03:29;6.30;;;4.20;;
12218;SDS011;6172;42.646;23.344;2022-12-10T04:06:00;12.27;;;4.60;;
12218;SDS011;6172;42.646;23.344;2022-12-10T04:08:29;8.23;;;4.77;;
12218;SDS011;6172;42.646;23.344;2022-12-10T04:11:01;10.47;;;4.70;;
12218;SDS011;6172;42.646;23.344;2022-12-10T04:13:30;8.13;;;4.23;;
12218;SDS011;6172;42.646;23.344;2022-12-10T04:16:15;8.37;;;3.87;;
12218;SDS011;6172;42.646;23.344;2022-12-10T04:18:54;6.63;;;3.87;;
12218;SDS011;6172;42.646;23.344;2022-12-10T04:21:23;7.80;;;4.03;;
12218;SDS011;6172;42.646;23.344;2022-12-10T04:24:10;6.73;;;3.80;;
12218;SDS011;6172;42.646;23.344;2022-12-10T04:26:55;9.60;;;4.53;;
12218;SDS011;6172;42.646;23.344;2022-12-10T04:29:41;9.80;;;3.87;;
12218;SDS011;6172;42.646;23.344;2022-12-10T04:32:08;8.27;;;4.40;;
12218;SDS011;6172;42.646;23.344;2022-12-10T04:34:36;8.23;;;4.37;;
12218;SDS011;6172;42.646;23.344;2022-12-10T04:37:03;7.87;;;4.13;;
12218;SDS011;6172;42.646;23.344;2022-12-10T04:39:32;9.80;;;4.17;;
12218;SDS011;6172;42.646;23.344;2022-12-10T04:41:59;7.50;;;4.03;;
12218;SDS011;6172;42.646;23.344;2022-12-10T04:44:27;10.70;;;4.07;;
12218;SDS011;6172;42.646;23.344;2022-12-10T04:46:54;8.27;;;4.43;;
12218;SDS011;6172;42.646;23.344;2022-12-10T04:49:21;5.40;;;4.07;;
12218;SDS011;6172;42.646;23.344;2022-12-10T04:51:49;13.50;;;4.17;;
12218;SDS011;6172;42.646;23.344;2022-12-10T04:54:36;14.33;;;4.90;;
12218;SDS011;6172;42.646;23.344;2022-12-10T04:57:03;10.27;;;4.60;;
12218;SDS011;6172;42.646;23.344;2022-12-10T04:59:29;9.43;;;4.17;;
12218;SDS011;6172;42.646;23.344;2022-12-10T05:01:57;10.87;;;4.33;;
12218;SDS011;6172;42.646;23.344;2022-12-10T05:04:24;8.47;;;3.87;;
12218;SDS011;6172;42.646;23.344;2022-12-10T05:06:51;12.70;;;4.20;;
12218;SDS011;6172;42.646;23.344;2022-12-10T05:09:17;10.43;;;4.67;;
12218;SDS011;6172;42.646;23.344;2022-12-10T05:11:46;10.60;;;4.60;;
12218;SDS011;6172;42.646;23.344;2022-12-10T05:14:13;10.50;;;4.73;;
12218;SDS011;6172;42.646;23.344;2022-12-10T05:16:41;9.93;;;4.60;;
12218;SDS011;6172;42.646;23.344;2022-12-10T05:19:29;9.30;;;4.77;;
12218;SDS011;6172;42.646;23.344;2022-12-10T05:21:58;8.60;;;4.87;;
12218;SDS011;6172;42.646;23.344;2022-12-10T05:24:48;8.57;;;4.97;;
12218;SDS011;6172;42.646;23.344;2022-12-10T05:27:19;9.70;;;4.80;;
12218;SDS011;6172;42.646;23.344;2022-12-10T05:29:53;9.37;;;5.10;;
12218;SDS011;6172;42.646;23.344;2022-12-10T05:32:28;9.57;;;5.03;;
12218;SDS011;6172;42.646;23.344;2022-12-10T05:34:58;10.67;;;5.13;;
12218;SDS011;6172;42.646;23.344;2022-12-10T05:37:27;7.83;;;4.73;;
12218;SDS011;6172;42.646;23.344;2022-12-10T05:39:55;10.13;;;5.13;;
12218;SDS011;6172;42.646;23.344;2022-12-10T05:42:29;9.67;;;5.07;;
12218;SDS011;6172;42.646;23.344;2022-12-10T05:44:58;11.43;;;5.50;;
12218;SDS011;6172;42.646;23.344;2022-12-10T05:47:27;9.63;;;4.50;;
12218;SDS011;6172;42.646;23.344;2022-12-10T05:50:00;9.83;;;4.73;;
12218;SDS011;6172;42.646;23.344;2022-12-10T05:52:26;8.50;;;4.73;;
12218;SDS011;6172;42.646;23.344;2022-12-10T05:54:53;7.30;;;4.57;;
12218;SDS011;6172;42.646;23.344;2022-12-10T05:57:20;9.63;;;4.90;;
12218;SDS011;6172;42.646;23.344;2022-12-10T05:59:51;11.33;;;5.83;;
12218;SDS011;6172;42.646;23.344;2022-12-10T06:02:18;12.77;;;5.90;;
12218;SDS011;6172;42.646;23.344;2022-12-10T06:04:48;11.03;;;5.73;;
12218;SDS011;6172;42.646;23.344;2022-12-10T06:07:16;13.83;;;5.53;;
12218;SDS011;6172;42.646;23.344;2022-12-10T06:09:45;11.53;;;5.17;;
12218;SDS011;6172;42.646;23.344;2022-12-10T06:12:15;13.60;;;5.37;;
12218;SDS011;6172;42.646;23.344;2022-12-10T06:14:42;10.47;;;5.47;;
12218;SDS011;6172;42.646;23.344;2022-12-10T06:17:10;9.50;;;5.00;;
12218;SDS011;6172;42.646;23.344;2022-12-10T06:19:37;10.97;;;5.67;;
12218;SDS011;6172;42.646;23.344;2022-12-10T06:22:04;9.00;;;5.13;;
12218;SDS011;6172;42.646;23.344;2022-12-10T06:24:31;9.60;;;5.30;;
12218;SDS011;6172;42.646;23.344;2022-12-10T06:27:00;8.03;;;5.00;;
12218;SDS011;6172;42.646;23.344;2022-12-10T06:29:27;7.83;;;5.17;;
12218;SDS011;6172;42.646;23.344;2022-12-10T06:31:57;11.73;;;5.57;;
12218;SDS011;6172;42.646;23.344;2022-12-10T06:34:28;9.10;;;5.50;;
12218;SDS011;6172;42.646;23.344;2022-12-10T06:36:55;13.07;;;5.93;;
12218;SDS011;6172;42.646;23.344;2022-12-10T06:39:22;12.67;;;5.20;;
12218;SDS011;6172;42.646;23.344;2022-12-10T06:41:49;9.83;;;5.60;;
12218;SDS011;6172;42.646;23.344;2022-12-10T06:44:19;10.90;;;5.80;;
12218;SDS011;6172;42.646;23.344;2022-12-10T06:46:45;9.13;;;5.87;;
12218;SDS011;6172;42.646;23.344;2022-12-10T06:49:12;13.43;;;6.13;;
12218;SDS011;6172;42.646;23.344;2022-12-10T06:51:40;9.00;;;6.13;;
12218;SDS011;6172;42.646;23.344;2022-12-10T06:54:10;12.53;;;6.13;;
12218;SDS011;6172;42.646;23.344;2022-12-10T06:56:37;12.77;;;6.63;;
12218;SDS011;6172;42.646;23.344;2022-12-10T06:59:04;11.87;;;6.10;;
12218;SDS011;6172;42.646;23.344;2022-12-10T07:01:32;14.93;;;6.80;;
12218;SDS011;6172;42.646;23.344;2022-12-10T07:04:00;12.13;;;6.70;;
12218;SDS011;6172;42.646;23.344;2022-12-10T07:06:27;12.93;;;7.03;;
12218;SDS011;6172;42.646;23.344;2022-12-10T07:09:15;13.63;;;6.67;;
12218;SDS011;6172;42.646;23.344;2022-12-10T07:11:41;15.03;;;7.53;;
12218;SDS011;6172;42.646;23.344;2022-12-10T07:14:11;14.87;;;7.47;;
12218;SDS011;6172;42.646;23.344;2022-12-10T07:16:40;15.67;;;7.17;;
12218;SDS011;6172;42.646;23.344;2022-12-10T07:19:08;13.30;;;6.63;;
12218;SDS011;6172;42.646;23.344;2022-12-10T07:21:37;18.00;;;7.53;;
12218;SDS011;6172;42.646;23.344;2022-12-10T07:24:07;15.73;;;8.20;;
12218;SDS011;6172;42.646;23.344;2022-12-10T07:26:40;13.90;;;7.83;;
12218;SDS011;6172;42.646;23.344;2022-12-10T07:29:16;13.13;;;8.67;;
12218;SDS011;6172;42.646;23.344;2022-12-10T07:31:44;16.87;;;8.50;;
12218;SDS011;6172;42.646;23.344;2022-12-10T07:34:17;18.63;;;8.50;;
12218;SDS011;6172;42.646;23.344;2022-12-10T07:36:44;12.80;;;8.50;;
12218;SDS011;6172;42.646;23.344;2022-12-10T07:39:15;16.20;;;8.97;;
12218;SDS011;6172;42.646;23.344;2022-12-10T07:41:46;17.90;;;8.27;;
12218;SDS011;6172;42.646;23.344;2022-12-10T07:44:17;13.53;;;8.23;;
12218;SDS011;6172;42.646;23.344;2022-12-10T07:46:46;20.30;;;8.40;;
12218;SDS011;6172;42.646;23.344;2022-12-10T07:49:21;13.57;;;7.90;;
12218;SDS011;6172;42.646;23.344;2022-12-10T07:51:49;15.47;;;7.37;;
12218;SDS011;6172;42.646;23.344;2022-12-10T07:54:16;16.03;;;7.13;;
12218;SDS011;6172;42.646;23.344;2022-12-10T07:56:50;14.17;;;7.60;;
12218;SDS011;6172;42.646;23.344;2022-12-10T07:59:17;12.00;;;7.67;;
12218;SDS011;6172;42.646;23.344;2022-12-10T08:01:44;12.70;;;7.00;;
12218;SDS011;6172;42.646;23.344;2022-12-10T08:04:12;15.83;;;7.67;;
12218;SDS011;6172;42.646;23.344;2022-12-10T08:06:42;20.33;;;8.40;;
12218;SDS011;6172;42.646;23.344;2022-12-10T08:09:10;17.17;;;9.13;;
12218;SDS011;6172;42.646;23.344;2022-12-10T08:11:37;18.17;;;9.57;;
12218;SDS011;6172;42.646;23.344;2022-12-10T08:14:05;17.60;;;8.40;;
12218;SDS011;6172;42.646;23.344;2022-12-10T08:16:32;17.23;;;8.87;;
12218;SDS011;6172;42.646;23.344;2022-12-10T08:18:59;15.97;;;8.07;;
12218;SDS011;6172;42.646;23.344;2022-12-10T08:21:27;17.53;;;9.13;;
12218;SDS011;6172;42.646;23.344;2022-12-10T08:23:58;15.77;;;8.73;;
12218;SDS011;6172;42.646;23.344;2022-12-10T08:26:29;16.33;;;8.03;;
12218;SDS011;6172;42.646;23.344;2022-12-10T08:28:58;10.30;;;7.50;;
12218;SDS011;6172;42.646;23.344;2022-12-10T08:31:26;14.03;;;8.53;;
12218;SDS011;6172;42.646;23.344;2022-12-10T08:33:54;13.07;;;7.87;;
12218;SDS011;6172;42.646;23.344;2022-12-10T08:36:21;15.07;;;7.73;;
12218;SDS011;6172;42.646;23.344;2022-12-10T08:38:48;11.90;;;7.70;;
12218;SDS011;6172;42.646;23.344;2022-12-10T08:41:17;12.20;;;7.53;;
12218;SDS011;6172;42.646;23.344;2022-12-10T08:43:45;16.30;;;8.57;;
12218;SDS011;6172;42.646;23.344;2022-12-10T08:46:13;12.40;;;8.33;;
12218;SDS011;6172;42.646;23.344;2022-12-10T08:48:45;16.53;;;8.80;;
12218;SDS011;6172;42.646;23.344;2022-12-10T08:51:15;18.00;;;8.27;;
12218;SDS011;6172;42.646;23.344;2022-12-10T08:53:43;17.23;;;7.77;;
12218;SDS011;6172;42.646;23.344;2022-12-10T08:56:11;16.10;;;8.30;;
12218;SDS011;6172;42.646;23.344;2022-12-10T08:58:38;16.10;;;8.93;;
12218;SDS011;6172;42.646;23.344;2022-12-10T09:01:08;15.20;;;7.60;;
12218;SDS011;6172;42.646;23.344;2022-12-10T09:03:41;14.07;;;9.00;;
12218;SDS011;6172;42.646;23.344;2022-12-10T09:06:11;14.57;;;8.73;;
12218;SDS011;6172;42.646;23.344;2022-12-10T09:08:42;12.70;;;8.53;;
12218;SDS011;6172;42.646;23.344;2022-12-10T09:11:13;13.23;;;8.03;;
12218;SDS011;6172;42.646;23.344;2022-12-10T09:13:44;16.70;;;8.23;;
12218;SDS011;6172;42.646;23.344;2022-12-10T09:16:12;13.00;;;8.00;;
12218;SDS011;6172;42.646;23.344;2022-12-10T09:18:39;15.20;;;8.80;;
12218;SDS011;6172;42.646;23.344;2022-12-10T09:21:12;15.17;;;8.50;;
12218;SDS011;6172;42.646;23.344;2022-12-10T09:23:40;17.60;;;9.30;;
12218;SDS011;6172;42.646;23.344;2022-12-10T09:26:09;13.73;;;8.30;;
12218;SDS011;6172;42.646;23.344;2022-12-10T09:28:37;15.73;;;9.23;;
12218;SDS011;6172;42.646;23.344;2022-12-10T09:31:04;12.67;;;8.63;;
12218;SDS011;6172;42.646;23.344;2022-12-10T09:33:33;14.20;;;9.03;;
12218;SDS011;6172;42.646;23.344;2022-12-10T09:36:01;14.87;;;9.27;;
12218;SDS011;6172;42.646;23.344;2022-12-10T09:38:32;13.50;;;9.83;;
12218;SDS011;6172;42.646;23.344;2022-12-10T09:41:01;16.03;;;9.77;;
12218;SDS011;6172;42.646;23.344;2022-12-10T09:43:35;17.37;;;9.87;;
12218;SDS011;6172;42.646;23.344;2022-12-10T09:46:12;17.73;;;9.83;;
12218;SDS011;6172;42.646;23.344;2022-12-10T09:48:52;19.73;;;10.03;;
12218;SDS011;6172;42.646;23.344;2022-12-10T09:51:28;23.27;;;9.00;;
12218;SDS011;6172;42.646;23.344;2022-12-10T09:53:59;15.73;;;9.20;;
12218;SDS011;6172;42.646;23.344;2022-12-10T09:56:30;17.13;;;9.67;;
12218;SDS011;6172;42.646;23.344;2022-12-10T09:59:01;16.47;;;10.77;;
12218;SDS011;6172;42.646;23.344;2022-12-10T10:01:32;15.27;;;10.10;;
12218;SDS011;6172;42.646;23.344;2022-12-10T10:04:02;14.97;;;10.57;;
12218;SDS011;6172;42.646;23.344;2022-12-10T10:06:29;17.60;;;10.13;;
12218;SDS011;6172;42.646;23.344;2022-12-10T10:08:59;15.37;;;10.00;;
12218;SDS011;6172;42.646;23.344;2022-12-10T10:11:32;23.17;;;10.53;;
12218;SDS011;6172;42.646;23.344;2022-12-10T10:14:04;17.47;;;10.07;;
12218;SDS011;6172;42.646;23.344;2022-12-10T10:16:39;18.87;;;10.27;;
12218;SDS011;6172;42.646;23.344;2022-12-10T10:19:12;17.67;;;9.93;;
12218;SDS011;6172;42.646;23.344;2022-12-10T10:21:42;15.40;;;9.97;;
12218;SDS011;6172;42.646;23.344;2022-12-10T10:24:13;17.27;;;10.57;;
12218;SDS011;6172;42.646;23.344;2022-12-10T10:26:43;16.50;;;9.63;;
12218;SDS011;6172;42.646;23.344;2022-12-10T10:29:13;17.43;;;10.20;;
12218;SDS011;6172;42.646;23.344;2022-12-10T10:31:43;18.77;;;10.33;;
12218;SDS011;6172;42.646;23.344;2022-12-10T10:34:13;18.23;;;10.17;;
12218;SDS011;6172;42.646;23.344;2022-12-10T10:36:44;16.53;;;10.47;;
12218;SDS011;6172;42.646;23.344;2022-12-10T10:39:19;17.50;;;9.97;;
12218;SDS011;6172;42.646;23.344;2022-12-10T10:41:53;18.00;;;10.33;;
12218;SDS011;6172;42.646;23.344;2022-12-10T10:44:23;13.43;;;9.47;;
12218;SDS011;6172;42.646;23.344;2022-12-10T10:46:54;15.30;;;10.03;;
12218;SDS011;6172;42.646;23.344;2022-12-10T10:49:23;15.73;;;10.17;;
12218;SDS011;6172;42.646;23.344;2022-12-10T10:51:52;17.33;;;9.50;;
12218;SDS011;6172;42.646;23.344;2022-12-10T10:54:32;14.00;;;9.07;;
12218;SDS011;6172;42.646;23.344;2022-12-10T10:57:01;14.57;;;9.80;;
12218;SDS011;6172;42.646;23.344;2022-12-10T10:59:31;17.43;;;10.90;;
12218;SDS011;6172;42.646;23.344;2022-12-10T11:02:01;18.77;;;11.27;;
12218;SDS011;6172;42.646;23.344;2022-12-10T11:04:44;15.50;;;10.63;;
12218;SDS011;6172;42.646;23.344;2022-12-10T11:07:16;17.27;;;9.80;;
12218;SDS011;6172;42.646;23.344;2022-12-10T11:09:48;16.03;;;10.13;;
12218;SDS011;6172;42.646;23.344;2022-12-10T11:12:29;16.27;;;10.40;;
12218;SDS011;6172;42.646;23.344;2022-12-10T11:15:02;19.20;;;10.33;;
12218;SDS011;6172;42.646;23.344;2022-12-10T11:17:42;18.80;;;11.13;;
12218;SDS011;6172;42.646;23.344;2022-12-10T11:20:16;16.50;;;10.47;;
12218;SDS011;6172;42.646;23.344;2022-12-10T11:22:48;16.23;;;10.77;;
12218;SDS011;6172;42.646;23.344;2022-12-10T11:25:17;18.00;;;11.27;;
12218;SDS011;6172;42.646;23.344;2022-12-10T11:27:52;16.37;;;10.97;;
12218;SDS011;6172;42.646;23.344;2022-12-10T11:30:26;15.20;;;10.37;;
12218;SDS011;6172;42.646;23.344;2022-12-10T11:32:58;16.97;;;10.57;;
12218;SDS011;6172;42.646;23.344;2022-12-10T11:35:43;19.57;;;10.13;;
12218;SDS011;6172;42.646;23.344;2022-12-10T11:38:22;19.30;;;11.30;;
12218;SDS011;6172;42.646;23.344;2022-12-10T11:40:59;19.60;;;11.03;;
12218;SDS011;6172;42.646;23.344;2022-12-10T11:43:36;19.83;;;10.50;;
12218;SDS011;6172;42.646;23.344;2022-12-10T11:46:28;14.43;;;9.63;;
12218;SDS011;6172;42.646;23.344;2022-12-10T11:49:07;21.27;;;9.93;;
12218;SDS011;6172;42.646;23.344;2022-12-10T11:51:44;14.27;;;9.20;;
12218;SDS011;6172;42.646;23.344;2022-12-10T11:54:22;16.33;;;8.63;;
12218;SDS011;6172;42.646;23.344;2022-12-10T11:57:08;17.70;;;9.20;;
12218;SDS011;6172;42.646;23.344;2022-12-10T11:59:44;19.27;;;8.40;;
12218;SDS011;6172;42.646;23.344;2022-12-10T12:02:29;17.23;;;7.53;;
12218;SDS011;6172;42.646;23.344;2022-12-10T12:05:14;13.63;;;7.10;;
12218;SDS011;6172;42.646;23.344;2022-12-10T12:07:52;13.87;;;6.67;;
12218;SDS011;6172;42.646;23.344;2022-12-10T12:10:32;10.53;;;6.67;;
12218;SDS011;6172;42.646;23.344;2022-12-10T12:13:08;16.20;;;6.93;;
12218;SDS011;6172;42.646;23.344;2022-12-10T12:15:38;12.63;;;6.53;;
12218;SDS011;6172;42.646;23.344;2022-12-10T12:18:12;9.43;;;5.97;;
12218;SDS011;6172;42.646;23.344;2022-12-10T12:20:45;11.23;;;5.77;;
12218;SDS011;6172;42.646;23.344;2022-12-10T12:23:17;11.47;;;5.63;;
12218;SDS011;6172;42.646;23.344;2022-12-10T12:25:56;11.83;;;5.47;;
12218;SDS011;6172;42.646;23.344;2022-12-10T12:28:34;12.33;;;5.90;;
12218;SDS011;6172;42.646;23.344;2022-12-10T12:31:09;12.63;;;6.60;;
12218;SDS011;6172;42.646;23.344;2022-12-10T12:33:42;16.50;;;6.40;;
12218;SDS011;6172;42.646;23.344;2022-12-10T12:36:14;8.03;;;4.87;;
12218;SDS011;6172;42.646;23.344;2022-12-10T12:38:45;10.67;;;5.33;;
12218;SDS011;6172;42.646;23.344;2022-12-10T12:41:21;19.30;;;6.97;;
12218;SDS011;6172;42.646;23.344;2022-12-10T12:43:58;13.60;;;6.57;;
12218;SDS011;6172;42.646;23.344;2022-12-10T12:46:30;12.33;;;6.33;;
12218;SDS011;6172;42.646;23.344;2022-12-10T12:49:02;17.70;;;6.80;;
12218;SDS011;6172;42.646;23.344;2022-12-10T12:51:38;15.07;;;8.13;;
12218;SDS011;6172;42.646;23.344;2022-12-10T12:54:09;21.80;;;8.63;;
12218;SDS011;6172;42.646;23.344;2022-12-10T12:56:42;21.80;;;8.33;;
12218;SDS011;6172;42.646;23.344;2022-12-10T12:59:29;12.37;;;7.27;;
12218;SDS011;6172;42.646;23.344;2022-12-10T13:02:06;10.43;;;5.97;;
12218;SDS011;6172;42.646;23.344;2022-12-10T13:04:42;12.13;;;5.87;;
12218;SDS011;6172;42.646;23.344;2022-12-10T13:10:18;12.57;;;6.23;;
12218;SDS011;6172;42.646;23.344;2022-12-10T13:12:51;12.17;;;6.17;;
12218;SDS011;6172;42.646;23.344;2022-12-10T13:15:37;13.70;;;6.43;;
12218;SDS011;6172;42.646;23.344;2022-12-10T13:21:17;12.97;;;6.47;;
12218;SDS011;6172;42.646;23.344;2022-12-10T13:23:53;10.53;;;6.07;;
12218;SDS011;6172;42.646;23.344;2022-12-10T13:26:31;18.30;;;6.97;;
12218;SDS011;6172;42.646;23.344;2022-12-10T13:29:10;17.80;;;8.23;;
12218;SDS011;6172;42.646;23.344;2022-12-10T13:31:40;15.07;;;7.10;;
12218;SDS011;6172;42.646;23.344;2022-12-10T13:34:29;10.53;;;7.27;;
12218;SDS011;6172;42.646;23.344;2022-12-10T13:37:06;18.97;;;7.53;;
12218;SDS011;6172;42.646;23.344;2022-12-10T13:39:46;15.17;;;7.50;;
12218;SDS011;6172;42.646;23.344;2022-12-10T13:42:26;21.27;;;7.30;;
12218;SDS011;6172;42.646;23.344;2022-12-10T13:45:29;14.87;;;7.97;;
12218;SDS011;6172;42.646;23.344;2022-12-10T13:54:01;12.33;;;7.07;;
12218;SDS011;6172;42.646;23.344;2022-12-10T13:56:46;15.77;;;7.00;;
12218;SDS011;6172;42.646;23.344;2022-12-10T13:59:25;17.10;;;7.17;;
12218;SDS011;6172;42.646;23.344;2022-12-10T14:02:11;16.37;;;7.50;;
12218;SDS011;6172;42.646;23.344;2022-12-10T14:05:03;11.50;;;6.60;;
12218;SDS011;6172;42.646;23.344;2022-12-10T14:07:48;13.20;;;7.20;;
12218;SDS011;6172;42.646;23.344;2022-12-10T14:10:19;12.97;;;7.37;;
12218;SDS011;6172;42.646;23.344;2022-12-10T14:12:51;14.30;;;7.40;;
12218;SDS011;6172;42.646;23.344;2022-12-10T14:15:20;13.57;;;7.97;;
12218;SDS011;6172;42.646;23.344;2022-12-10T14:17:51;14.00;;;7.60;;
12218;SDS011;6172;42.646;23.344;2022-12-10T14:20:23;12.73;;;7.13;;
12218;SDS011;6172;42.646;23.344;2022-12-10T14:22:53;15.53;;;7.17;;
12218;SDS011;6172;42.646;23.344;2022-12-10T14:25:42;13.77;;;6.33;;
12218;SDS011;6172;42.646;23.344;2022-12-10T14:28:11;15.90;;;6.57;;
12218;SDS011;6172;42.646;23.344;2022-12-10T14:30:41;9.30;;;6.33;;
12218;SDS011;6172;42.646;23.344;2022-12-10T14:33:13;15.03;;;6.63;;
12218;SDS011;6172;42.646;23.344;2022-12-10T14:35:47;11.97;;;6.47;;
12218;SDS011;6172;42.646;23.344;2022-12-10T14:38:17;11.20;;;6.77;;
12218;SDS011;6172;42.646;23.344;2022-12-10T14:40:46;15.67;;;6.83;;
12218;SDS011;6172;42.646;23.344;2022-12-10T14:43:14;13.43;;;6.70;;
12218;SDS011;6172;42.646;23.344;2022-12-10T14:45:46;15.07;;;6.33;;
12218;SDS011;6172;42.646;23.344;2022-12-10T14:48:16;26.87;;;8.20;;
12218;SDS011;6172;42.646;23.344;2022-12-10T14:50:44;21.43;;;8.70;;
12218;SDS011;6172;42.646;23.344;2022-12-10T14:53:14;20.97;;;8.03;;
12218;SDS011;6172;42.646;23.344;2022-12-10T14:55:43;14.10;;;7.23;;
12218;SDS011;6172;42.646;23.344;2022-12-10T14:58:13;16.30;;;8.20;;
12218;SDS011;6172;42.646;23.344;2022-12-10T15:00:43;22.90;;;9.20;;
12218;SDS011;6172;42.646;23.344;2022-12-10T15:03:13;19.30;;;7.87;;
12218;SDS011;6172;42.646;23.344;2022-12-10T15:05:53;16.27;;;8.90;;
12218;SDS011;6172;42.646;23.344;2022-12-10T15:08:24;18.77;;;7.40;;
12218;SDS011;6172;42.646;23.344;2022-12-10T15:10:54;20.93;;;9.13;;
12218;SDS011;6172;42.646;23.344;2022-12-10T15:13:23;19.03;;;8.97;;
12218;SDS011;6172;42.646;23.344;2022-12-10T15:15:54;19.00;;;8.70;;